Time;durP1;ratioP1;P1;durP2;ratioP2;P2;SDS_P1;SDS_P2;PMS_P1;PMS_P2;Temp;Humidity;BMP_temperature;BMP_pressure;BME280_temperature;BME280_humidity;BME280_pressure;Samples;Min_cycle;Max_cycle;Signal;HPM_P1;HPM_P2
2022/06/09 00:01:09;;;;;;;1.95;1.25;;;13.60;99.90;;;;;;5056055;28;20048;-76
2022/06/09 00:03:57;;;;;;;2.50;1.13;;;13.60;99.90;;;;;;5055365;28;20025;-76
2022/06/09 00:06:38;;;;;;;2.55;1.30;;;13.60;99.90;;;;;;5056191;28;20020;-76
2022/06/09 00:09:05;;;;;;;3.38;1.67;;;13.70;99.90;;;;;;5054204;28;20096;-76
2022/06/09 00:11:33;;;;;;;2.70;1.30;;;13.70;99.90;;;;;;5054586;28;20017;-76
2022/06/09 00:13:59;;;;;;;2.17;1.35;;;13.70;99.90;;;;;;5055492;28;20029;-76
2022/06/09 00:16:26;;;;;;;3.30;1.30;;;13.70;99.90;;;;;;5055732;28;20047;-76
2022/06/09 00:18:52;;;;;;;3.90;1.50;;;13.70;99.90;;;;;;5054046;28;20021;-76
2022/06/09 00:21:18;;;;;;;2.65;1.58;;;13.70;99.90;;;;;;5055602;28;20024;-75
2022/06/09 00:23:43;;;;;;;1.80;1.40;;;13.70;99.90;;;;;;5055271;28;20021;-75
2022/06/09 00:26:09;;;;;;;3.55;1.70;;;13.70;99.90;;;;;;5055109;28;20481;-75
2022/06/09 00:28:35;;;;;;;5.90;1.60;;;13.70;99.90;;;;;;5054950;28;20036;-75
2022/06/09 00:31:00;;;;;;;3.28;1.70;;;13.70;99.90;;;;;;5055367;28;20056;-76
2022/06/09 00:33:26;;;;;;;3.33;1.50;;;13.70;99.90;;;;;;5055371;28;20048;-75
2022/06/09 00:35:52;;;;;;;4.38;1.83;;;13.80;99.90;;;;;;5055528;28;20029;-75
2022/06/09 00:38:17;;;;;;;4.55;1.73;;;13.80;99.90;;;;;;5054989;28;20067;-76
2022/06/09 00:40:43;;;;;;;4.20;1.80;;;13.80;99.90;;;;;;5055208;28;20036;-76
2022/06/09 00:43:09;;;;;;;3.88;1.77;;;13.80;99.90;;;;;;5055203;28;20409;-76
2022/06/09 00:45:42;;;;;;;4.25;1.77;;;13.80;99.90;;;;;;5055190;28;20025;-76
2022/06/09 00:48:43;;;;;;;3.53;1.90;;;13.80;99.90;;;;;;5053852;28;20031;-76
2022/06/09 00:51:17;;;;;;;4.15;1.67;;;13.80;99.90;;;;;;5032651;28;20029;-76
2022/06/09 00:53:43;;;;;;;3.90;2.00;;;13.80;99.90;;;;;;5051312;28;20060;-76
2022/06/09 00:56:13;;;;;;;3.45;1.92;;;13.80;99.90;;;;;;5070059;28;20028;-78
2022/06/09 00:58:43;;;;;;;3.40;1.83;;;13.80;99.90;;;;;;5054483;28;20029;-76
2022/06/09 01:01:12;;;;;;;3.67;2.05;;;13.80;99.90;;;;;;5053121;28;20080;-76
2022/06/09 01:03:43;;;;;;;4.88;1.70;;;13.80;99.90;;;;;;5054663;28;20036;-76
2022/06/09 01:06:15;;;;;;;4.25;1.70;;;13.80;99.90;;;;;;5054667;28;20094;-76
2022/06/09 01:08:48;;;;;;;3.92;1.80;;;13.90;99.90;;;;;;5054468;28;20048;-76
2022/06/09 01:11:13;;;;;;;3.15;1.77;;;13.90;99.90;;;;;;5054821;28;20029;-76
2022/06/09 01:13:40;;;;;;;4.22;1.92;;;13.90;99.90;;;;;;5054481;28;20025;-76
2022/06/09 01:16:15;;;;;;;2.50;1.55;;;13.90;99.90;;;;;;5054547;28;20086;-76
2022/06/09 01:18:55;;;;;;;4.30;1.73;;;13.90;99.90;;;;;;5050843;28;20101;-76
2022/06/09 01:21:42;;;;;;;4.35;1.80;;;13.90;99.90;;;;;;5054769;28;20040;-75
2022/06/09 01:24:46;;;;;;;4.25;1.85;;;13.90;99.90;;;;;;5065502;28;20024;-75
2022/06/09 01:27:14;;;;;;;2.95;1.60;;;13.80;99.90;;;;;;5051724;28;20029;-75
2022/06/09 01:30:14;;;;;;;2.30;1.67;;;13.90;99.90;;;;;;5056538;28;20112;-76
2022/06/09 01:32:53;;;;;;;4.68;1.70;;;14.00;99.90;;;;;;5074445;28;20031;-76
2022/06/09 01:35:46;;;;;;;4.07;1.80;;;13.90;99.90;;;;;;5053636;28;20025;-76
2022/06/09 01:38:12;;;;;;;2.75;1.65;;;13.90;99.90;;;;;;5070135;28;20032;-76
2022/06/09 01:40:37;;;;;;;3.05;1.83;;;13.80;99.90;;;;;;5074099;28;20033;-76
2022/06/09 01:43:05;;;;;;;3.20;1.70;;;13.80;99.90;;;;;;5074037;28;20021;-76
2022/06/09 01:45:42;;;;;;;3.92;1.83;;;13.90;99.90;;;;;;5062346;28;20018;-76
2022/06/09 01:48:11;;;;;;;4.95;1.70;;;13.80;99.90;;;;;;5074256;28;20349;-76
2022/06/09 01:50:48;;;;;;;3.70;1.70;;;13.80;99.90;;;;;;5074063;28;20382;-76
2022/06/09 01:53:21;;;;;;;4.38;1.80;;;13.80;99.90;;;;;;5073768;28;20559;-76
2022/06/09 01:55:56;;;;;;;4.18;1.83;;;13.80;99.90;;;;;;5067614;28;20064;-76
2022/06/09 01:58:26;;;;;;;2.40;1.50;;;13.80;99.90;;;;;;5053799;28;20037;-76
2022/06/09 02:00:54;;;;;;;3.03;1.60;;;13.80;99.90;;;;;;5066776;28;20367;-76
2022/06/09 02:03:28;;;;;;;4.63;2.08;;;13.80;99.90;;;;;;5053633;28;20092;-76
2022/06/09 02:05:58;;;;;;;4.32;1.73;;;13.70;99.90;;;;;;5052408;28;20025;-76
2022/06/09 02:08:24;;;;;;;5.07;1.88;;;13.70;99.90;;;;;;5053187;28;20053;-76
2022/06/09 02:10:57;;;;;;;3.13;1.92;;;13.70;99.90;;;;;;5057299;28;20017;-76
2022/06/09 02:13:29;;;;;;;3.30;1.90;;;13.70;99.90;;;;;;5073389;28;20027;-76
2022/06/09 02:16:00;;;;;;;4.47;2.15;;;13.60;99.90;;;;;;5053464;28;20021;-76
2022/06/09 02:18:29;;;;;;;5.13;2.25;;;13.60;99.90;;;;;;5047977;28;20116;-76
2022/06/09 02:21:03;;;;;;;4.80;2.00;;;13.60;99.90;;;;;;5065630;28;20048;-76
2022/06/09 02:23:29;;;;;;;4.70;1.85;;;13.60;99.90;;;;;;5073387;28;20020;-76
2022/06/09 02:25:55;;;;;;;4.50;1.95;;;13.60;99.90;;;;;;5058330;28;20017;-76
2022/06/09 02:28:21;;;;;;;5.50;1.77;;;13.60;99.90;;;;;;5063128;28;20017;-76
2022/06/09 02:30:46;;;;;;;4.68;2.20;;;13.60;99.90;;;;;;5065180;28;20028;-76
2022/06/09 02:33:12;;;;;;;3.67;1.80;;;13.60;99.90;;;;;;5071091;28;20473;-76
2022/06/09 02:35:38;;;;;;;3.25;1.85;;;13.50;99.90;;;;;;5071910;28;20044;-76
2022/06/09 02:38:04;;;;;;;4.95;2.20;;;13.60;99.90;;;;;;5072421;28;20099;-76
2022/06/09 02:40:31;;;;;;;6.07;2.13;;;13.50;99.90;;;;;;5072539;28;20024;-76
2022/06/09 02:42:57;;;;;;;4.30;1.85;;;13.50;99.90;;;;;;5055610;28;20029;-76
2022/06/09 02:45:24;;;;;;;4.25;1.80;;;13.50;99.90;;;;;;5059791;28;20356;-76
2022/06/09 02:47:49;;;;;;;5.22;2.00;;;13.50;99.90;;;;;;5072533;28;20025;-76
2022/06/09 02:50:16;;;;;;;4.05;2.00;;;13.50;99.90;;;;;;5072623;28;20013;-76
2022/06/09 02:52:41;;;;;;;3.58;1.80;;;13.50;99.90;;;;;;5072589;28;20066;-76
2022/06/09 02:55:09;;;;;;;6.10;2.15;;;13.40;99.90;;;;;;5071782;28;20041;-76
2022/06/09 02:57:35;;;;;;;4.78;2.30;;;13.40;99.90;;;;;;5071833;28;20115;-76
2022/06/09 03:00:00;;;;;;;3.90;1.77;;;13.40;99.90;;;;;;5071374;28;20537;-76
2022/06/09 03:02:26;;;;;;;4.88;2.25;;;13.40;99.90;;;;;;5060363;28;20028;-76
2022/06/09 03:04:52;;;;;;;3.38;1.65;;;13.40;99.90;;;;;;5072907;28;20051;-76
2022/06/09 03:07:17;;;;;;;3.90;1.90;;;13.30;99.90;;;;;;5058540;28;20020;-76
2022/06/09 03:09:43;;;;;;;4.13;1.80;;;13.40;99.90;;;;;;5062945;28;20095;-76
2022/06/09 03:12:09;;;;;;;3.88;2.00;;;13.40;99.90;;;;;;5052526;28;20111;-76
2022/06/09 03:14:36;;;;;;;5.93;2.08;;;13.30;99.90;;;;;;5051603;28;20028;-76
2022/06/09 03:17:02;;;;;;;7.07;2.30;;;13.30;99.90;;;;;;5064383;28;20367;-76
2022/06/09 03:19:28;;;;;;;3.65;2.25;;;13.30;99.90;;;;;;5049112;28;20047;-76
2022/06/09 03:21:54;;;;;;;4.55;2.35;;;13.30;99.90;;;;;;5052543;28;20092;-76
2022/06/09 03:24:19;;;;;;;3.60;2.20;;;13.30;99.90;;;;;;5063474;28;20108;-76
2022/06/09 03:26:45;;;;;;;3.15;2.20;;;13.30;99.90;;;;;;5052115;28;20025;-76
2022/06/09 03:29:11;;;;;;;7.25;2.83;;;13.40;99.90;;;;;;5069317;28;20055;-76
2022/06/09 03:31:36;;;;;;;3.13;2.08;;;13.30;99.90;;;;;;5044095;28;20086;-76
2022/06/09 03:34:02;;;;;;;3.55;2.08;;;13.30;99.90;;;;;;5072195;28;20093;-76
2022/06/09 03:36:29;;;;;;;6.75;2.17;;;13.30;99.90;;;;;;5072170;28;20422;-76
2022/06/09 03:38:55;;;;;;;5.13;2.10;;;13.30;99.90;;;;;;5060306;28;20032;-76
2022/06/09 03:41:20;;;;;;;2.58;1.88;;;13.30;99.90;;;;;;5052507;28;20013;-76
2022/06/09 03:43:46;;;;;;;2.70;2.10;;;13.30;99.90;;;;;;5051968;28;20107;-76
2022/06/09 03:46:12;;;;;;;3.53;2.15;;;13.30;99.90;;;;;;5066091;28;20028;-76
2022/06/09 03:48:38;;;;;;;4.13;2.10;;;13.30;99.90;;;;;;5072068;28;20035;-76
2022/06/09 03:51:04;;;;;;;3.17;1.85;;;13.30;99.90;;;;;;5071864;28;20024;-76
2022/06/09 03:53:30;;;;;;;6.03;2.05;;;13.30;99.90;;;;;;5066174;28;20480;-76
2022/06/09 03:55:57;;;;;;;8.80;2.53;;;13.30;99.90;;;;;;5072086;28;20033;-76
2022/06/09 03:58:23;;;;;;;4.03;2.03;;;13.30;99.90;;;;;;5071679;28;20027;-76
2022/06/09 04:00:48;;;;;;;4.85;1.88;;;13.40;99.90;;;;;;5071847;28;20017;-76
2022/06/09 04:03:14;;;;;;;2.92;1.70;;;13.40;99.90;;;;;;5071850;28;20056;-76
2022/06/09 04:05:39;;;;;;;3.63;2.03;;;13.40;99.90;;;;;;5071245;28;20029;-76
2022/06/09 04:08:06;;;;;;;4.38;2.03;;;13.40;99.90;;;;;;5059037;28;20119;-76
2022/06/09 04:10:33;;;;;;;3.85;1.75;;;13.40;99.90;;;;;;5051982;28;20458;-76
2022/06/09 04:12:59;;;;;;;4.20;1.90;;;13.40;99.90;;;;;;5053361;28;20021;-80
2022/06/09 04:15:25;;;;;;;4.97;1.70;;;13.40;99.90;;;;;;5043686;28;20026;-76
2022/06/09 04:17:54;;;;;;;5.07;2.17;;;13.40;99.90;;;;;;5044569;28;20032;-79
2022/06/09 04:20:22;;;;;;;4.82;1.98;;;13.40;99.90;;;;;;5064588;28;20029;-79
2022/06/09 04:22:48;;;;;;;2.75;1.60;;;13.40;99.90;;;;;;5064181;28;20021;-79
2022/06/09 04:25:14;;;;;;;2.90;1.45;;;13.50;99.90;;;;;;5054029;28;20534;-77
2022/06/09 04:27:39;;;;;;;4.80;2.00;;;13.50;99.90;;;;;;5056222;28;20036;-77
2022/06/09 04:30:07;;;;;;;2.30;1.70;;;13.50;99.90;;;;;;5064414;28;20071;-77
2022/06/09 04:32:32;;;;;;;2.50;1.58;;;13.50;99.90;;;;;;5056194;28;20025;-77
2022/06/09 04:34:58;;;;;;;6.22;2.10;;;13.60;99.90;;;;;;5056101;28;20044;-77
2022/06/09 04:37:59;;;;;;;4.13;1.70;;;13.60;99.90;;;;;;5056462;28;20100;-77
2022/06/09 04:40:10;;;;;;;3.05;1.80;;;13.70;99.90;;;;;;5054855;28;20100;-77
2022/06/09 04:42:36;;;;;;;3.28;1.55;;;13.70;99.90;;;;;;5055496;28;20556;-78
2022/06/09 04:45:02;;;;;;;2.20;1.45;;;13.70;99.90;;;;;;5055534;28;20028;-77
2022/06/09 04:47:27;;;;;;;3.25;1.80;;;13.80;99.90;;;;;;5058593;28;20029;-77
2022/06/09 04:49:53;;;;;;;3.33;1.50;;;13.90;99.90;;;;;;5055307;28;20029;-77
2022/06/09 04:52:18;;;;;;;3.05;1.58;;;13.90;99.90;;;;;;5056398;28;20150;-77
2022/06/09 04:54:44;;;;;;;5.45;1.88;;;14.00;99.90;;;;;;5056757;28;20155;-77
2022/06/09 04:57:09;;;;;;;3.40;1.55;;;14.00;99.90;;;;;;5054925;28;20037;-84
2022/06/09 04:59:35;;;;;;;3.20;1.50;;;14.00;99.90;;;;;;5055186;28;20036;-77
2022/06/09 05:02:00;;;;;;;2.67;1.20;;;14.10;99.90;;;;;;5050007;28;20017;-77
2022/06/09 05:04:26;;;;;;;5.88;1.80;;;14.20;99.90;;;;;;5057221;28;20021;-77
2022/06/09 05:06:51;;;;;;;4.75;1.70;;;14.20;99.90;;;;;;5059010;28;20021;-77
2022/06/09 05:09:17;;;;;;;4.35;1.77;;;14.20;99.90;;;;;;5054927;28;20096;-77
2022/06/09 05:11:43;;;;;;;4.93;1.40;;;14.30;99.90;;;;;;5061162;28;20074;-77
2022/06/09 05:14:09;;;;;;;2.30;1.48;;;14.30;99.90;;;;;;5055559;28;20022;-77
2022/06/09 05:16:35;;;;;;;3.33;1.52;;;14.30;99.90;;;;;;5055292;28;20373;-77
2022/06/09 05:19:00;;;;;;;3.97;1.60;;;14.30;99.90;;;;;;5055323;28;20446;-77
2022/06/09 05:21:26;;;;;;;4.13;1.40;;;14.30;99.90;;;;;;5055393;28;20029;-77
2022/06/09 05:23:51;;;;;;;6.63;2.13;;;14.30;99.90;;;;;;5052540;28;20030;-77
2022/06/09 05:26:17;;;;;;;3.30;1.63;;;14.30;99.90;;;;;;5060662;28;20055;-77
2022/06/09 05:28:43;;;;;;;4.85;1.55;;;14.30;99.90;;;;;;5055335;28;20029;-77
2022/06/09 05:31:08;;;;;;;2.78;1.50;;;14.30;99.90;;;;;;5051620;28;20490;-77
2022/06/09 05:33:34;;;;;;;2.88;1.90;;;14.30;99.90;;;;;;5053807;28;20031;-77
2022/06/09 05:36:00;;;;;;;3.88;1.40;;;14.30;99.90;;;;;;5055194;28;20441;-77
2022/06/09 05:46:41;;;;;;;3.13;1.60;;;14.30;99.90;;;;;;5053141;28;20103;-76
2022/06/09 05:49:09;;;;;;;3.25;1.65;;;14.30;99.90;;;;;;5054709;28;20456;-75
2022/06/09 05:51:35;;;;;;;4.47;1.60;;;14.30;99.90;;;;;;5055536;28;20185;-76
2022/06/09 05:54:00;;;;;;;3.78;1.70;;;14.30;99.90;;;;;;5054619;28;20481;-76
2022/06/09 05:56:26;;;;;;;3.60;1.73;;;14.40;99.90;;;;;;5056411;28;20060;-75
2022/06/09 05:58:52;;;;;;;3.08;1.58;;;14.40;99.90;;;;;;5054493;28;20025;-76
2022/06/09 06:01:17;;;;;;;2.55;1.48;;;14.40;99.90;;;;;;5054471;28;20022;-75
2022/06/09 06:03:43;;;;;;;2.65;1.20;;;14.50;99.90;;;;;;5054183;28;20025;-75
2022/06/09 06:08:53;;;;;;;2.75;1.60;;;14.40;99.90;;;;;;5053886;28;20043;-74
2022/06/09 06:11:19;;;;;;;2.58;1.25;;;14.40;99.90;;;;;;5054023;28;20025;-74
2022/06/09 06:13:45;;;;;;;2.53;1.33;;;14.30;99.90;;;;;;5053872;28;20374;-74
2022/06/09 06:16:11;;;;;;;3.13;2.15;;;14.40;99.90;;;;;;5053990;28;20473;-74
2022/06/09 06:18:37;;;;;;;1.55;1.35;;;14.40;99.90;;;;;;5069111;28;20071;-74
2022/06/09 06:21:05;;;;;;;3.75;1.50;;;14.40;99.90;;;;;;5053224;28;20013;-74
2022/06/09 06:23:31;;;;;;;1.90;1.30;;;14.50;99.90;;;;;;5053846;28;20032;-74
2022/06/09 06:25:57;;;;;;;3.10;1.52;;;14.50;99.90;;;;;;5053884;28;20354;-74
2022/06/09 06:28:24;;;;;;;2.60;1.30;;;14.50;99.90;;;;;;5052351;28;20055;-71
2022/06/09 06:30:53;;;;;;;3.15;1.50;;;14.70;99.90;;;;;;5051521;28;20048;-70
2022/06/09 06:33:19;;;;;;;3.72;1.65;;;14.70;99.90;;;;;;5057421;28;20025;-70
2022/06/09 06:35:45;;;;;;;2.55;1.40;;;14.70;99.90;;;;;;5056892;28;20021;-73
2022/06/09 06:38:12;;;;;;;1.88;1.20;;;14.80;99.90;;;;;;5070450;28;20484;-76
2022/06/09 06:40:37;;;;;;;2.33;1.25;;;14.70;99.90;;;;;;5073261;28;20024;-76
2022/06/09 06:43:03;;;;;;;5.18;1.58;;;14.80;99.90;;;;;;5056995;28;20512;-75
2022/06/09 06:45:31;;;;;;;2.15;1.20;;;14.80;99.90;;;;;;5052731;28;20079;-76
2022/06/09 06:47:57;;;;;;;2.78;1.55;;;14.80;99.90;;;;;;5067071;28;20040;-76
2022/06/09 06:50:23;;;;;;;1.65;1.20;;;14.90;99.90;;;;;;5059472;28;20021;-76
2022/06/09 06:52:49;;;;;;;3.78;1.33;;;15.00;99.90;;;;;;5060346;28;20029;-76
2022/06/09 06:55:17;;;;;;;1.73;1.20;;;15.00;99.90;;;;;;5071192;28;20066;-75
2022/06/09 06:57:43;;;;;;;4.50;1.42;;;15.00;99.90;;;;;;5071888;28;20056;-76
2022/06/09 07:00:16;;;;;;;4.15;1.30;;;15.00;99.90;;;;;;5057733;28;20071;-75
2022/06/09 07:02:42;;;;;;;3.88;1.05;;;15.00;99.90;;;;;;5071539;28;20012;-76
2022/06/09 07:05:08;;;;;;;0.85;0.75;;;15.20;99.90;;;;;;5057951;28;20090;-75
2022/06/09 07:07:35;;;;;;;1.65;0.90;;;15.40;99.90;;;;;;5063973;28;20397;-76
2022/06/09 07:10:01;;;;;;;1.20;0.90;;;15.40;99.90;;;;;;5061265;28;20024;-76
2022/06/09 07:12:27;;;;;;;2.50;1.00;;;15.50;99.90;;;;;;5071845;28;20041;-77
2022/06/09 07:14:52;;;;;;;2.42;1.38;;;15.60;99.90;;;;;;5073363;28;20033;-76
2022/06/09 07:17:18;;;;;;;1.10;0.82;;;15.60;99.90;;;;;;5051607;28;20091;-76
2022/06/09 07:19:43;;;;;;;1.95;0.95;;;15.80;99.90;;;;;;5059353;28;20167;-76
2022/06/09 07:22:09;;;;;;;1.17;0.80;;;15.90;99.90;;;;;;5055457;28;20037;-76
2022/06/09 07:24:35;;;;;;;2.00;0.98;;;15.90;99.90;;;;;;5073523;28;20032;-76
2022/06/09 07:27:00;;;;;;;2.13;1.10;;;15.90;99.90;;;;;;5073858;28;20441;-79
2022/06/09 07:29:26;;;;;;;1.67;1.00;;;15.90;99.90;;;;;;5066224;28;20032;-76
2022/06/09 07:31:52;;;;;;;4.68;1.40;;;15.80;99.90;;;;;;5054443;28;20098;-76
2022/06/09 07:34:19;;;;;;;3.30;1.15;;;15.60;99.90;;;;;;5052914;28;20017;-76
2022/06/09 07:36:46;;;;;;;2.28;1.05;;;15.40;99.90;;;;;;5066685;28;20025;-76
2022/06/09 07:39:11;;;;;;;2.95;1.30;;;15.20;99.90;;;;;;5065165;28;20024;-76
2022/06/09 07:41:37;;;;;;;3.25;1.40;;;15.10;99.90;;;;;;5054577;28;20108;-76
2022/06/09 07:44:05;;;;;;;2.70;1.20;;;14.90;99.90;;;;;;5051262;28;20059;-76
2022/06/09 07:46:31;;;;;;;3.05;1.50;;;14.70;99.90;;;;;;5052656;28;20055;-76
2022/06/09 07:48:57;;;;;;;4.70;1.60;;;14.60;99.90;;;;;;5052043;28;20061;-75
2022/06/09 07:51:24;;;;;;;5.47;2.15;;;14.40;99.90;;;;;;5052220;28;20029;-75
2022/06/09 07:53:50;;;;;;;3.22;1.50;;;14.30;99.90;;;;;;5059166;28;20068;-75
2022/06/09 07:56:16;;;;;;;2.95;1.40;;;14.20;99.90;;;;;;5059269;28;20064;-75
2022/06/09 07:58:42;;;;;;;10.68;1.67;;;14.10;99.90;;;;;;5052434;28;20044;-75
2022/06/09 08:01:08;;;;;;;3.72;1.80;;;13.90;99.90;;;;;;5051634;28;20017;-76
2022/06/09 08:03:34;;;;;;;5.88;2.33;;;13.80;99.90;;;;;;5066982;28;20382;-75
2022/06/09 08:05:59;;;;;;;2.47;1.58;;;13.90;99.90;;;;;;5052508;28;20024;-75
2022/06/09 08:08:25;;;;;;;3.78;1.60;;;13.90;99.90;;;;;;5066694;28;20024;-75
2022/06/09 08:10:50;;;;;;;4.07;1.73;;;13.90;99.90;;;;;;5052772;28;20070;-76
2022/06/09 08:13:16;;;;;;;3.03;1.80;;;14.00;99.90;;;;;;5052638;28;20033;-76
2022/06/09 08:15:44;;;;;;;4.40;1.80;;;14.00;99.90;;;;;;5050687;28;20028;-76
2022/06/09 08:18:10;;;;;;;4.25;1.77;;;14.10;99.90;;;;;;5047817;28;20377;-76
2022/06/09 08:20:38;;;;;;;3.55;1.63;;;14.10;99.90;;;;;;5059891;28;20066;-76
2022/06/09 08:23:17;;;;;;;3.45;1.75;;;14.10;99.90;;;;;;5076251;28;20104;-76
2022/06/09 08:25:44;;;;;;;5.00;1.92;;;14.20;99.90;;;;;;5059589;28;20485;-76
2022/06/09 08:28:11;;;;;;;5.10;1.75;;;14.30;99.90;;;;;;5056086;28;20029;-76
2022/06/09 08:30:38;;;;;;;3.63;1.60;;;14.40;99.90;;;;;;5072036;28;20044;-76
2022/06/09 08:33:05;;;;;;;3.65;1.85;;;14.50;99.90;;;;;;5072425;28;20029;-77
2022/06/09 08:35:31;;;;;;;4.13;2.08;;;14.60;99.90;;;;;;5054155;28;20039;-77
2022/06/09 08:37:57;;;;;;;5.50;1.73;;;14.70;99.90;;;;;;5053287;28;20420;-77
2022/06/09 08:40:47;;;;;;;3.85;2.08;;;14.70;99.90;;;;;;5053389;28;20017;-76
2022/06/09 08:43:25;;;;;;;4.88;1.95;;;14.80;99.90;;;;;;5053152;28;20049;-77
2022/06/09 08:45:56;;;;;;;4.05;1.63;;;14.80;99.90;;;;;;5053631;28;20021;-76
2022/06/09 08:48:28;;;;;;;4.72;2.08;;;14.90;99.90;;;;;;5053686;28;20048;-77
2022/06/09 08:51:03;;;;;;;6.00;1.95;;;15.00;99.90;;;;;;5051908;28;20031;-77
2022/06/09 08:53:30;;;;;;;;;;;15.10;99.90;;;;;;5053324;28;20048;-77
2022/06/09 08:56:08;;;;;;;3.17;1.60;;;15.30;99.90;;;;;;5053412;28;19912;-77
2022/06/09 08:58:44;;;;;;;3.13;1.60;;;15.40;99.90;;;;;;5055510;28;20032;-77
2022/06/09 09:01:10;;;;;;;4.25;1.60;;;15.60;99.90;;;;;;5053715;28;20035;-77
2022/06/09 09:03:42;;;;;;;3.88;1.55;;;15.70;99.90;;;;;;5055584;28;20200;-77
2022/06/09 09:06:38;;;;;;;4.75;1.80;;;15.80;99.90;;;;;;5056245;28;20048;-77
2022/06/09 09:09:16;;;;;;;5.78;1.83;;;15.90;99.90;;;;;;5055824;28;20025;-77
2022/06/09 09:12:13;;;;;;;3.88;1.85;;;15.90;99.90;;;;;;5055847;28;20021;-77
2022/06/09 09:15:20;;;;;;;6.85;1.80;;;16.00;99.90;;;;;;5045902;28;20025;-77
2022/06/09 09:18:19;;;;;;;4.88;1.88;;;16.10;99.90;;;;;;5038407;28;20033;-70
2022/06/09 09:20:59;;;;;;;4.57;1.75;;;16.20;99.90;;;;;;5060687;28;20028;-70
2022/06/09 09:23:40;;;;;;;4.07;1.65;;;16.30;99.90;;;;;;5073484;28;20013;-70
2022/06/09 09:26:17;;;;;;;5.13;2.08;;;16.50;99.90;;;;;;5059486;28;20008;-71
2022/06/09 09:28:46;;;;;;;5.05;1.85;;;16.60;99.90;;;;;;5073092;28;20429;-71
2022/06/09 09:31:42;;;;;;;6.97;1.88;;;16.70;99.90;;;;;;5059215;28;20483;-71
2022/06/09 09:34:16;;;;;;;5.22;1.70;;;16.80;99.90;;;;;;5072824;28;20452;-71
2022/06/09 09:36:45;;;;;;;6.60;1.98;;;16.90;99.90;;;;;;5072889;28;20031;-71
2022/06/09 09:39:22;;;;;;;6.95;1.95;;;17.00;99.90;;;;;;5072848;28;20031;-71
2022/06/09 09:41:48;;;;;;;4.65;2.40;;;17.10;99.90;;;;;;5058738;28;20024;-70
2022/06/09 09:44:26;;;;;;;4.82;1.92;;;17.00;99.90;;;;;;5072833;28;20469;-69
2022/06/09 09:46:59;;;;;;;5.40;2.05;;;16.90;99.90;;;;;;5068183;28;20048;-75
2022/06/09 09:49:34;;;;;;;4.85;1.95;;;16.70;99.90;;;;;;5054146;28;20107;-78
2022/06/09 09:52:00;;;;;;;;;;;16.40;99.90;;;;;;5072647;28;20017;-78
2022/06/09 09:54:38;;;;;;;7.30;2.15;;;16.10;99.90;;;;;;5071946;28;20006;-78
2022/06/09 09:57:33;;;;;;;2.88;1.40;;;15.60;99.90;;;;;;5071784;28;20017;-78
2022/06/09 09:59:59;;;;;;;4.83;1.70;;;15.20;99.90;;;;;;5065766;28;20421;-79
2022/06/09 10:08:38;;;;;;;5.32;1.95;;;14.70;99.90;;;;;;5071855;28;20453;-79
2022/06/09 10:14:48;;;;;;;6.57;2.00;;;14.60;99.90;;;;;;5071949;28;20361;-79
2022/06/09 10:17:38;;;;;;;8.20;2.35;;;14.60;99.90;;;;;;5067119;28;20021;-80
2022/06/09 10:20:15;;;;;;;4.32;1.83;;;14.60;99.90;;;;;;5053634;28;20028;-80
2022/06/09 10:22:47;;;;;;;3.83;1.90;;;14.70;99.90;;;;;;5045072;28;20028;-80
2022/06/09 10:25:26;;;;;;;3.47;1.88;;;14.80;99.90;;;;;;5071827;28;20468;-80
2022/06/09 10:27:59;;;;;;;4.38;2.00;;;14.90;99.90;;;;;;5071771;28;20433;-80
2022/06/09 10:30:45;;;;;;;7.00;2.40;;;15.00;99.90;;;;;;5061723;28;20032;-80
2022/06/09 10:33:30;;;;;;;;;;;15.10;99.90;;;;;;5071233;28;20765;-80
2022/06/09 10:36:01;;;;;;;4.45;2.10;;;15.20;99.90;;;;;;5071514;28;20356;-80
2022/06/09 10:38:36;;;;;;;6.50;2.60;;;15.30;99.90;;;;;;5071451;28;20817;-80
2022/06/09 10:41:08;;;;;;;4.75;2.40;;;15.30;99.90;;;;;;5071392;28;20052;-81
2022/06/09 10:43:40;;;;;;;7.32;2.80;;;15.40;99.90;;;;;;5071716;28;20127;-79
2022/06/09 10:46:12;;;;;;;7.72;2.50;;;15.40;99.90;;;;;;5070350;28;20404;-79
2022/06/09 10:57:45;;;;;;;4.50;2.30;;;15.70;99.90;;;;;;5051952;28;20040;-79
2022/06/09 11:00:13;;;;;;;7.38;2.38;;;15.90;99.90;;;;;;5056887;28;20025;-79
2022/06/09 11:03:03;;;;;;;9.23;2.03;;;16.10;99.90;;;;;;5069788;28;20051;-79
2022/06/09 11:05:53;;;;;;;6.68;2.03;;;16.50;99.90;;;;;;5070512;28;20480;-79
2022/06/09 11:08:25;;;;;;;6.38;1.60;;;16.80;99.90;;;;;;5071116;28;20553;-80
2022/06/09 11:10:56;;;;;;;4.28;1.30;;;17.30;99.90;;;;;;5071091;28;20038;-79
2022/06/09 11:13:40;;;;;;;2.13;1.10;;;17.70;99.90;;;;;;5071287;28;20485;-80
2022/06/09 11:16:51;;;;;;;7.32;1.67;;;18.20;99.90;;;;;;5070663;28;20306;-79
2022/06/09 11:19:44;;;;;;;5.45;1.70;;;18.50;99.90;;;;;;5049537;28;20040;-79
2022/06/09 11:22:37;;;;;;;3.33;1.30;;;18.70;99.90;;;;;;5066121;28;20025;-79
2022/06/09 11:25:24;;;;;;;4.22;1.40;;;18.90;99.90;;;;;;5051060;28;20052;-79
2022/06/09 11:28:07;;;;;;;3.47;1.45;;;18.80;99.90;;;;;;5044676;28;20068;-79
2022/06/09 11:30:44;;;;;;;4.40;1.40;;;18.80;99.90;;;;;;5060178;28;20037;-79
2022/06/09 11:33:35;;;;;;;4.57;1.30;;;18.60;99.90;;;;;;5069189;28;20028;-79
2022/06/09 11:36:28;;;;;;;3.30;1.45;;;18.40;99.90;;;;;;5071452;28;20025;-79
2022/06/09 11:39:05;;;;;;;4.38;1.38;;;18.10;99.90;;;;;;5070254;28;20025;-79
2022/06/09 11:41:35;;;;;;;5.88;1.88;;;17.90;99.90;;;;;;5071312;28;20024;-79
2022/06/09 11:44:07;;;;;;;8.35;1.58;;;17.80;99.90;;;;;;5071175;28;20099;-79
2022/06/09 11:46:37;;;;;;;2.00;1.20;;;17.60;99.90;;;;;;5071345;28;20039;-79
2022/06/09 11:49:10;;;;;;;2.33;1.08;;;17.70;99.90;;;;;;5070688;28;20043;-78
2022/06/09 11:51:36;;;;;;;4.40;1.35;;;17.90;99.90;;;;;;5075296;28;20033;-78
2022/06/09 11:54:05;;;;;;;2.78;1.05;;;18.10;99.90;;;;;;5074534;28;21311;-78
2022/06/09 11:56:33;;;;;;;2.40;1.00;;;18.20;99.90;;;;;;5074389;28;20032;-78
2022/06/09 11:59:04;;;;;;;2.85;1.20;;;18.00;99.90;;;;;;5075080;28;20040;-78
2022/06/09 12:01:36;;;;;;;4.40;1.20;;;17.90;99.90;;;;;;5060466;28;20087;-76
2022/06/09 12:04:28;;;;;;;5.25;1.30;;;17.60;99.90;;;;;;5048082;28;20521;-76
2022/06/09 12:07:13;;;;;;;3.63;1.10;;;17.40;99.90;;;;;;5072064;28;20021;-76
2022/06/09 12:09:51;;;;;;;;;;;17.30;99.90;;;;;;5065955;28;20029;-77
2022/06/09 12:12:32;;;;;;;4.55;1.25;;;17.00;99.90;;;;;;5062837;28;19919;-77
2022/06/09 12:15:20;;;;;;;2.13;1.20;;;17.00;99.90;;;;;;5065077;28;20037;-77
2022/06/09 12:18:06;;;;;;;3.70;1.38;;;17.10;99.90;;;;;;5038912;28;20036;-77
2022/06/09 12:20:56;;;;;;;2.42;1.10;;;17.20;99.90;;;;;;5059014;28;20473;-78
2022/06/09 12:23:28;;;;;;;3.08;1.10;;;17.50;99.90;;;;;;5066616;28;20469;-78
2022/06/09 12:26:19;;;;;;;4.00;1.00;;;18.10;99.90;;;;;;5054072;28;20869;-77
2022/06/09 12:28:54;;;;;;;3.50;1.35;;;18.50;99.90;;;;;;5051251;28;20037;-78
2022/06/09 12:31:24;;;;;;;3.10;1.17;;;18.80;99.90;;;;;;5057724;28;20013;-77
2022/06/09 12:33:55;;;;;;;2.70;1.20;;;19.30;99.90;;;;;;5073640;28;20020;-77
2022/06/09 12:36:43;;;;;;;3.40;1.20;;;19.30;99.90;;;;;;5072522;28;20028;-77
2022/06/09 12:39:44;;;;;;;4.85;1.10;;;19.30;99.90;;;;;;5073610;28;20028;-76
2022/06/09 12:42:48;;;;;;;4.20;1.38;;;19.50;99.90;;;;;;5062519;28;20033;-76
2022/06/09 12:45:22;;;;;;;2.22;1.08;;;19.80;99.90;;;;;;5035879;28;20036;-70
2022/06/09 12:48:08;;;;;;;3.95;1.25;;;20.20;99.90;;;;;;5074580;28;20021;-70
2022/06/09 12:50:42;;;;;;;4.97;1.20;;;20.40;99.90;;;;;;5052241;28;20024;-70
2022/06/09 12:53:16;;;;;;;3.13;1.30;;;20.60;99.90;;;;;;5060202;28;20052;-71
2022/06/09 12:55:50;;;;;;;3.53;1.10;;;20.90;99.90;;;;;;5074205;28;20020;-70
2022/06/09 12:58:15;;;;;;;3.20;1.10;;;21.20;99.90;;;;;;5059921;28;20028;-70
2022/06/09 13:00:56;;;;;;;6.63;1.30;;;21.00;99.90;;;;;;5073449;28;20255;-70
2022/06/09 13:03:32;;;;;;;3.40;0.95;;;20.90;99.90;;;;;;5074327;28;20369;-71
2022/06/09 13:06:21;;;;;;;3.22;1.30;;;20.70;99.90;;;;;;5074514;28;20017;-69
2022/06/09 13:08:50;;;;;;;4.88;1.42;;;20.70;99.90;;;;;;5073264;28;20505;-70
2022/06/09 13:14:12;;;;;;;5.07;1.17;;;19.90;99.90;;;;;;5056882;28;20150;-69
2022/06/09 13:16:44;;;;;;;5.07;1.20;;;19.50;99.90;;;;;;5066038;28;20075;-69
2022/06/09 13:19:11;;;;;;;5.30;1.30;;;19.10;99.90;;;;;;5048764;28;20362;-70
2022/06/09 13:21:39;;;;;;;4.78;1.30;;;18.70;99.90;;;;;;5061931;28;20020;-69
2022/06/09 13:24:13;;;;;;;2.47;1.20;;;18.50;99.90;;;;;;5053479;28;20067;-69
2022/06/09 13:26:42;;;;;;;2.42;0.90;;;18.40;99.90;;;;;;5053755;28;20025;-74
2022/06/09 13:29:28;;;;;;;5.57;1.45;;;18.30;99.90;;;;;;5069133;28;20024;-70
2022/06/09 13:32:22;;;;;;;2.00;0.93;;;18.40;99.90;;;;;;5058744;28;20123;-70
2022/06/09 13:34:51;;;;;;;4.25;1.70;;;18.30;99.90;;;;;;5059314;28;20024;-70
2022/06/09 13:37:20;;;;;;;4.90;1.20;;;18.20;99.90;;;;;;5073484;28;20839;-70
2022/06/09 13:39:50;;;;;;;4.22;1.00;;;18.20;99.90;;;;;;5073522;28;20121;-70
2022/06/09 13:42:27;;;;;;;2.60;0.93;;;18.10;99.90;;;;;;5073453;28;20404;-70